createdAt,value
2023-04-01T00:00:15.652Z,8.28
2023-04-01T00:01:15.636Z,8.34
2023-04-01T00:02:15.716Z,8.20
2023-04-01T00:03:15.686Z,8.29
2023-04-01T00:04:15.629Z,8.25
2023-04-01T00:05:15.605Z,8.23
2023-04-01T00:06:15.592Z,8.28
2023-04-01T00:07:15.560Z,8.28
2023-04-01T00:08:15.572Z,8.22
2023-04-01T00:09:15.548Z,8.19
2023-04-01T00:10:15.557Z,8.15
2023-04-01T00:11:15.522Z,8.18
2023-04-01T00:12:15.504Z,8.18
2023-04-01T00:13:15.510Z,8.12
2023-04-01T00:14:15.583Z,8.11
2023-04-01T00:15:15.485Z,8.11
2023-04-01T00:16:21.879Z,8.12
2023-04-01T00:17:16.452Z,8.08
2023-04-01T00:18:15.437Z,8.04
2023-04-01T00:19:15.787Z,8.01
2023-04-01T00:20:15.518Z,8.05
2023-04-01T00:21:15.413Z,7.92
2023-04-01T00:22:15.415Z,7.93
2023-04-01T00:23:15.403Z,8.00
2023-04-01T00:24:15.380Z,7.98
2023-04-01T00:25:15.356Z,7.92
2023-04-01T00:26:15.458Z,7.95
2023-04-01T00:27:15.343Z,7.92
2023-04-01T00:28:15.341Z,7.98
2023-04-01T00:29:15.384Z,7.89
2023-04-01T00:30:15.314Z,7.89
2023-04-01T00:31:15.321Z,7.89
2023-04-01T00:32:15.391Z,7.97
2023-04-01T00:33:15.280Z,7.97
2023-04-01T00:34:15.272Z,7.95
2023-04-01T00:35:15.250Z,7.90
2023-04-01T00:36:15.336Z,7.92
2023-04-01T00:37:15.235Z,7.95
2023-04-01T00:38:15.306Z,8.01
2023-04-01T00:39:15.218Z,8.00
2023-04-01T00:40:15.211Z,8.04
2023-04-01T00:41:15.211Z,8.02
2023-04-01T00:42:15.214Z,8.07
2023-04-01T00:43:15.164Z,8.00
2023-04-01T00:44:15.185Z,8.04
2023-04-01T00:45:15.176Z,8.12
2023-04-01T00:46:15.238Z,8.11
2023-04-01T00:47:15.117Z,8.08
2023-04-01T00:48:15.109Z,8.07
2023-04-01T00:49:15.118Z,8.15
2023-04-01T00:50:15.133Z,8.10
2023-04-01T00:51:15.087Z,8.16
2023-04-01T00:52:15.073Z,8.11
2023-04-01T00:53:15.076Z,8.15
2023-04-01T00:54:23.243Z,8.18
2023-04-01T00:55:15.051Z,8.22
2023-04-01T00:56:15.056Z,8.15
2023-04-01T00:57:15.068Z,8.12
2023-04-01T00:58:14.999Z,8.12
2023-04-01T00:59:15.003Z,8.08
2023-04-01T01:00:15.039Z,8.01
2023-04-01T01:01:15.047Z,8.01
2023-04-01T01:02:15.000Z,8.07
2023-04-01T01:03:15.000Z,8.02
2023-04-01T01:04:14.969Z,7.98
2023-04-01T01:05:14.963Z,8.00
2023-04-01T01:06:14.992Z,8.02
2023-04-01T01:07:14.988Z,8.02
2023-04-01T01:08:15.003Z,7.97
2023-04-01T01:09:14.875Z,8.00
2023-04-01T01:10:14.863Z,8.01
2023-04-01T01:11:15.018Z,8.02
2023-04-01T01:12:14.878Z,7.97
2023-04-01T01:13:14.857Z,8.02
2023-04-01T01:14:14.842Z,8.08
2023-04-01T01:15:14.813Z,8.10
2023-04-01T01:16:14.869Z,8.07
2023-04-01T01:17:14.828Z,8.18
2023-04-01T01:18:14.778Z,8.05
2023-04-01T01:19:14.777Z,8.12
2023-04-01T01:20:25.487Z,8.10
2023-04-01T01:21:15.740Z,8.07
2023-04-01T01:22:14.825Z,8.12
2023-04-01T01:23:14.740Z,8.07
2023-04-01T01:24:14.714Z,8.01
2023-04-01T01:25:14.721Z,8.10
2023-04-01T01:26:14.686Z,8.08
2023-04-01T01:27:14.696Z,8.04
2023-04-01T01:28:14.701Z,8.04
2023-04-01T01:29:14.668Z,8.04
2023-04-01T01:30:14.673Z,8.00
2023-04-01T01:31:14.703Z,8.01
2023-04-01T01:32:14.620Z,8.00
2023-04-01T01:33:14.659Z,7.98
2023-04-01T01:34:14.636Z,7.98
2023-04-01T01:35:14.624Z,8.00
2023-04-01T01:36:14.653Z,7.92
2023-04-01T01:37:14.561Z,7.97
2023-04-01T01:38:14.553Z,7.92
2023-04-01T01:39:14.558Z,7.98
2023-04-01T01:40:14.560Z,7.92
2023-04-01T01:41:14.552Z,7.98
2023-04-01T01:42:14.531Z,7.86
2023-04-01T01:43:14.493Z,7.83
2023-04-01T01:44:14.492Z,7.86
2023-04-01T01:45:14.508Z,7.79
2023-04-01T01:46:14.579Z,7.83
2023-04-01T01:47:14.460Z,7.86
2023-04-01T01:48:14.463Z,7.85
2023-04-01T01:49:14.759Z,7.86
2023-04-01T01:50:14.439Z,7.90
2023-04-01T01:51:14.439Z,7.86
2023-04-01T01:52:14.394Z,7.71
2023-04-01T01:53:14.431Z,7.77
2023-04-01T01:54:14.377Z,7.80
2023-04-01T01:55:14.358Z,7.87
2023-04-01T01:56:14.349Z,7.83
2023-04-01T01:57:14.387Z,7.85
2023-04-01T01:58:14.336Z,7.93
2023-04-01T01:59:14.378Z,7.93
2023-04-01T02:00:14.312Z,7.95
2023-04-01T02:01:14.330Z,7.97
2023-04-01T02:02:14.315Z,7.92
2023-04-01T02:03:14.291Z,8.00
2023-04-01T02:04:14.310Z,7.95
2023-04-01T02:05:14.298Z,7.97
2023-04-01T02:06:14.270Z,7.97
2023-04-01T02:07:14.228Z,7.90
2023-04-01T02:08:14.222Z,7.90
2023-04-01T02:09:14.204Z,7.85
2023-04-01T02:10:14.208Z,7.98
2023-04-01T02:11:14.218Z,7.98
2023-04-01T02:12:14.213Z,7.89
2023-04-01T02:13:14.166Z,7.85
2023-04-01T02:14:14.155Z,7.77
2023-04-01T02:15:14.140Z,7.83
2023-04-01T02:16:14.194Z,7.85
2023-04-01T02:17:14.152Z,7.71
2023-04-01T02:18:14.152Z,7.86
2023-04-01T02:19:14.204Z,7.82
2023-04-01T02:20:14.089Z,7.80
2023-04-01T02:21:14.135Z,7.77
2023-04-01T02:22:14.086Z,7.77
2023-04-01T02:23:14.048Z,7.69
2023-04-01T02:24:14.097Z,7.79
2023-04-01T02:25:14.029Z,7.72
2023-04-01T02:26:14.051Z,7.74
2023-04-01T02:27:14.045Z,7.67
2023-04-01T02:28:14.016Z,7.68
2023-04-01T02:29:14.026Z,7.71
2023-04-01T02:30:14.003Z,7.74
2023-04-01T02:31:13.987Z,7.68
2023-04-01T02:32:13.955Z,7.74
2023-04-01T02:33:14.044Z,7.72
2023-04-01T02:34:13.924Z,7.68
2023-04-01T02:35:13.915Z,7.67
2023-04-01T02:36:13.975Z,7.69
2023-04-01T02:37:13.927Z,7.67
2023-04-01T02:38:13.914Z,7.64
2023-04-01T02:39:13.895Z,7.67
2023-04-01T02:40:13.922Z,7.67
2023-04-01T02:41:13.844Z,7.74
2023-04-01T02:42:13.850Z,7.57
2023-04-01T02:43:13.835Z,7.57
2023-04-01T02:44:13.829Z,7.64
2023-04-01T02:45:13.837Z,7.68
2023-04-01T02:46:13.797Z,7.64
2023-04-01T02:47:13.781Z,7.67
2023-04-01T02:48:13.853Z,7.68
2023-04-01T02:49:13.758Z,7.58
2023-04-01T02:50:13.782Z,7.72
2023-04-01T02:51:13.739Z,7.72
2023-04-01T02:52:13.729Z,7.79
2023-04-01T02:53:13.737Z,7.72
2023-04-01T02:54:13.806Z,7.75
2023-04-01T02:55:13.717Z,7.79
2023-04-01T02:56:13.700Z,7.71
2023-04-01T02:57:13.694Z,7.64
2023-04-01T02:58:13.659Z,7.74
2023-04-01T02:59:13.676Z,7.77
2023-04-01T03:00:13.676Z,7.75
2023-04-01T03:01:13.698Z,7.69
2023-04-01T03:02:13.694Z,7.63
2023-04-01T03:03:13.702Z,7.74
2023-04-01T03:04:13.597Z,7.55
2023-04-01T03:05:13.582Z,7.57
2023-04-01T03:06:13.669Z,7.64
2023-04-01T03:07:13.575Z,7.53
2023-04-01T03:08:13.550Z,7.52
2023-04-01T03:09:13.565Z,7.57
2023-04-01T03:10:13.558Z,7.45
2023-04-01T03:11:13.550Z,7.46
2023-04-01T03:12:13.557Z,7.42
2023-04-01T03:13:13.516Z,7.49
2023-04-01T03:14:13.486Z,7.40
2023-04-01T03:15:13.499Z,7.43
2023-04-01T03:16:13.500Z,7.45
2023-04-01T03:17:13.452Z,7.40
2023-04-01T03:18:13.478Z,7.37
2023-04-01T03:19:13.426Z,7.30
2023-04-01T03:20:13.451Z,7.43
2023-04-01T03:21:13.403Z,7.37
2023-04-01T03:22:13.402Z,7.31
2023-04-01T03:23:13.384Z,7.34
2023-04-01T03:24:13.419Z,7.43
2023-04-01T03:25:13.425Z,7.40
2023-04-01T03:26:13.348Z,7.48
2023-04-01T03:27:13.335Z,7.45
2023-04-01T03:28:13.348Z,7.48
2023-04-01T03:29:13.320Z,7.43
2023-04-01T03:30:13.421Z,7.49
2023-04-01T03:31:13.319Z,7.50
2023-04-01T03:32:13.306Z,7.43
2023-04-01T03:33:13.265Z,7.45
2023-04-01T03:34:13.294Z,7.37
2023-04-01T03:35:13.257Z,7.42
2023-04-01T03:36:13.317Z,7.39
2023-04-01T03:37:13.260Z,7.39
2023-04-01T03:38:13.230Z,7.32
2023-04-01T03:39:13.248Z,7.39
2023-04-01T03:40:13.194Z,7.40
2023-04-01T03:41:13.223Z,7.34
2023-04-01T03:42:13.222Z,7.27
2023-04-01T03:43:13.266Z,7.27
2023-04-01T03:44:13.172Z,7.31
2023-04-01T03:45:13.144Z,7.32
2023-04-01T03:46:13.184Z,7.35
2023-04-01T03:47:13.139Z,7.30
2023-04-01T03:48:13.201Z,7.37
2023-04-01T03:49:13.107Z,7.25
2023-04-01T03:50:13.080Z,7.27
2023-04-01T03:51:13.105Z,7.27
2023-04-01T03:52:13.076Z,7.31
2023-04-01T03:53:13.065Z,7.28
2023-04-01T03:54:13.104Z,7.25
2023-04-01T03:55:13.024Z,7.25
2023-04-01T03:56:13.050Z,7.25
2023-04-01T03:57:13.048Z,7.13
2023-04-01T03:58:12.996Z,7.24
2023-04-01T03:59:13.016Z,7.25
2023-04-01T04:00:12.973Z,7.20
2023-04-01T04:01:12.956Z,7.23
2023-04-01T04:02:12.992Z,7.27
2023-04-01T04:03:13.164Z,7.30
2023-04-01T04:04:12.963Z,7.30
2023-04-01T04:05:12.925Z,7.32
2023-04-01T04:06:12.903Z,7.27
2023-04-01T04:07:12.965Z,7.24
2023-04-01T04:08:12.881Z,7.30
2023-04-01T04:09:12.883Z,7.24
2023-04-01T04:10:12.932Z,7.31
2023-04-01T04:11:12.854Z,7.34
2023-04-01T04:12:12.840Z,7.32
2023-04-01T04:13:12.888Z,7.39
2023-04-01T04:14:12.820Z,7.35
2023-04-01T04:15:12.893Z,7.40
2023-04-01T04:16:12.837Z,7.37
2023-04-01T04:17:12.781Z,7.31
2023-04-01T04:18:12.796Z,7.37
2023-04-01T04:19:12.760Z,7.28
2023-04-01T04:20:12.758Z,7.20
2023-04-01T04:21:12.802Z,7.13
2023-04-01T04:22:12.762Z,7.25
2023-04-01T04:23:12.716Z,7.09
2023-04-01T04:24:12.703Z,7.15
2023-04-01T04:25:12.720Z,7.05
2023-04-01T04:26:12.698Z,7.02
2023-04-01T04:27:12.793Z,7.06
2023-04-01T04:28:12.695Z,7.05
2023-04-01T04:29:12.667Z,7.03
2023-04-01T04:30:12.645Z,7.06
2023-04-01T04:31:12.643Z,7.02
2023-04-01T04:32:12.622Z,7.06
2023-04-01T04:33:12.729Z,7.02
2023-04-01T04:34:12.636Z,7.07
2023-04-01T04:35:12.614Z,7.06
2023-04-01T04:36:12.597Z,7.07
2023-04-01T04:37:12.562Z,7.03
2023-04-01T04:38:12.558Z,7.07
2023-04-01T04:39:12.579Z,7.07
2023-04-01T04:40:12.529Z,7.05
2023-04-01T04:41:12.518Z,7.12
2023-04-01T04:42:12.542Z,7.09
2023-04-01T04:43:12.502Z,7.07
2023-04-01T04:44:12.509Z,7.12
2023-04-01T04:45:12.533Z,7.15
2023-04-01T04:46:12.456Z,7.17
2023-04-01T04:47:12.546Z,7.21
2023-04-01T04:48:12.468Z,7.16
2023-04-01T04:49:12.450Z,7.16
2023-04-01T04:50:12.414Z,7.23
2023-04-01T04:51:12.453Z,7.27
2023-04-01T04:52:12.420Z,7.27
2023-04-01T04:53:12.402Z,7.27
2023-04-01T04:54:12.375Z,7.23
2023-04-01T04:55:12.387Z,7.13
2023-04-01T04:56:12.393Z,7.16
2023-04-01T04:57:12.411Z,7.15
2023-04-01T04:58:12.323Z,7.20
2023-04-01T04:59:12.344Z,7.23
2023-04-01T05:00:12.320Z,7.23
2023-04-01T05:01:12.377Z,7.27
2023-04-01T05:02:12.360Z,7.31
2023-04-01T05:03:12.392Z,7.28
2023-04-01T05:04:12.259Z,7.21
2023-04-01T05:05:12.246Z,7.27
2023-04-01T05:06:12.248Z,7.23
2023-04-01T05:07:12.257Z,7.25
2023-04-01T05:08:12.211Z,7.34
2023-04-01T05:09:12.444Z,7.25
2023-04-01T05:10:12.204Z,7.37
2023-04-01T05:11:13.764Z,7.30
2023-04-01T05:12:12.187Z,7.37
2023-04-01T05:13:12.156Z,7.31
2023-04-01T05:14:12.144Z,7.42
2023-04-01T05:15:12.170Z,7.35
2023-04-01T05:16:12.142Z,7.35
2023-04-01T05:17:12.165Z,7.37
2023-04-01T05:18:12.127Z,7.35
2023-04-01T05:19:12.129Z,7.28
2023-04-01T05:20:12.086Z,7.37
2023-04-01T05:21:12.099Z,7.35
2023-04-01T05:22:12.087Z,7.37
2023-04-01T05:23:12.051Z,7.34
2023-04-01T05:24:12.030Z,7.32
2023-04-01T05:25:12.023Z,7.39
2023-04-01T05:26:12.032Z,7.43
2023-04-01T05:27:12.077Z,7.40
2023-04-01T05:28:12.025Z,7.50
2023-04-01T05:29:11.998Z,7.50
2023-04-01T05:30:11.966Z,7.46
2023-04-01T05:31:12.030Z,7.48
2023-04-01T05:32:11.943Z,7.46
2023-04-01T05:33:11.988Z,7.46
2023-04-01T05:34:11.976Z,7.53
2023-04-01T05:35:11.931Z,7.46
2023-04-01T05:36:11.939Z,7.48
2023-04-01T05:37:11.893Z,7.50
2023-04-01T05:38:11.879Z,7.58
2023-04-01T05:39:11.908Z,7.55
2023-04-01T05:40:11.940Z,7.53
2023-04-01T05:41:11.842Z,7.57
2023-04-01T05:42:11.832Z,7.68
2023-04-01T05:43:11.828Z,7.71
2023-04-01T05:44:11.812Z,7.71
2023-04-01T05:45:11.844Z,7.72
2023-04-01T05:46:11.841Z,7.74
2023-04-01T05:47:11.849Z,7.67
2023-04-01T05:48:11.764Z,7.83
2023-04-01T05:49:11.819Z,7.79
2023-04-01T05:50:11.779Z,7.75
2023-04-01T05:51:11.784Z,7.85
2023-04-01T05:52:11.741Z,7.79
2023-04-01T05:53:11.713Z,7.82
2023-04-01T05:54:11.727Z,7.89
2023-04-01T05:55:11.693Z,7.95
2023-04-01T05:56:11.711Z,7.86
2023-04-01T05:57:11.752Z,7.98
2023-04-01T05:58:11.654Z,7.85
2023-04-01T05:59:11.642Z,7.97
2023-04-01T06:00:11.636Z,7.93
2023-04-01T06:01:15.866Z,7.95
2023-04-01T06:02:12.637Z,8.02
2023-04-01T06:03:11.724Z,8.07
2023-04-01T06:04:11.606Z,8.11
2023-04-01T06:05:11.592Z,8.16
2023-04-01T06:06:11.562Z,8.08
2023-04-01T06:07:11.583Z,8.10
2023-04-01T06:08:11.555Z,8.10
2023-04-01T06:09:11.582Z,8.12
2023-04-01T06:10:11.552Z,8.11
2023-04-01T06:11:11.508Z,8.18
2023-04-01T06:12:11.502Z,8.10
2023-04-01T06:13:11.497Z,8.12
2023-04-01T06:14:11.492Z,8.15
2023-04-01T06:15:11.499Z,8.18
2023-04-01T06:16:11.493Z,8.29
2023-04-01T06:17:11.441Z,8.28
2023-04-01T06:18:11.477Z,8.34
2023-04-01T06:19:11.455Z,8.28
2023-04-01T06:20:11.432Z,8.30
2023-04-01T06:21:11.482Z,8.28
2023-04-01T06:22:11.380Z,8.25
2023-04-01T06:23:11.394Z,8.28
2023-04-01T06:24:11.371Z,8.34
2023-04-01T06:25:11.377Z,8.34
2023-04-01T06:26:11.369Z,8.33
2023-04-01T06:27:11.335Z,8.34
2023-04-01T06:28:11.375Z,8.37
2023-04-01T06:29:11.354Z,8.33
2023-04-01T06:30:11.304Z,8.34
2023-04-01T06:31:11.362Z,8.30
2023-04-01T06:32:11.517Z,8.29
2023-04-01T06:33:11.369Z,8.25
2023-04-01T06:34:11.254Z,8.33
2023-04-01T06:35:11.275Z,8.33
2023-04-01T06:36:11.277Z,8.30
2023-04-01T06:37:11.275Z,8.40
2023-04-01T06:38:11.208Z,8.33
2023-04-01T06:39:11.421Z,8.29
2023-04-01T06:40:11.223Z,8.30
2023-04-01T06:41:11.180Z,8.37
2023-04-01T06:42:11.184Z,8.28
2023-04-01T06:43:11.231Z,8.26
2023-04-01T06:44:11.152Z,8.41
2023-04-01T06:45:11.132Z,8.38
2023-04-01T06:46:11.374Z,8.36
2023-04-01T06:47:11.109Z,8.40
2023-04-01T06:48:11.173Z,8.52
2023-04-01T06:49:11.146Z,8.53
2023-04-01T06:50:11.104Z,8.63
2023-04-01T06:51:11.072Z,8.65
2023-04-01T06:52:11.075Z,8.70
2023-04-01T06:53:11.066Z,8.70
2023-04-01T06:54:11.055Z,8.71
2023-04-01T06:55:11.063Z,8.74
2023-04-01T06:56:11.027Z,8.81
2023-04-01T06:57:11.047Z,8.94
2023-04-01T06:58:10.988Z,8.96
2023-04-01T06:59:11.016Z,8.91
2023-04-01T07:00:10.995Z,8.95
2023-04-01T07:01:11.019Z,9.08
2023-04-01T07:02:10.971Z,9.10
2023-04-01T07:03:11.033Z,9.02
2023-04-01T07:04:10.957Z,9.05
2023-04-01T07:05:11.130Z,9.10
2023-04-01T07:06:10.897Z,9.17
2023-04-01T07:07:10.890Z,9.02
2023-04-01T07:08:10.908Z,9.18
2023-04-01T07:09:10.913Z,9.13
2023-04-01T07:10:10.856Z,9.14
2023-04-01T07:11:10.861Z,9.26
2023-04-01T07:12:10.824Z,9.33
2023-04-01T07:13:10.819Z,9.36
2023-04-01T07:14:10.838Z,9.40
2023-04-01T07:15:10.794Z,9.42
2023-04-01T07:16:10.801Z,9.36
2023-04-01T07:17:10.873Z,9.60
2023-04-01T07:18:10.782Z,9.64
2023-04-01T07:19:10.800Z,9.64
2023-04-01T07:20:10.758Z,9.65
2023-04-01T07:21:10.724Z,9.58
2023-04-01T07:22:10.734Z,9.65
2023-04-01T07:23:10.738Z,9.61
2023-04-01T07:24:10.690Z,9.58
2023-04-01T07:25:10.699Z,9.66
2023-04-01T07:26:10.700Z,9.56
2023-04-01T07:27:10.681Z,9.57
2023-04-01T07:28:10.670Z,9.53
2023-04-01T07:29:10.638Z,9.57
2023-04-01T07:30:10.644Z,9.51
2023-04-01T07:31:10.650Z,9.58
2023-04-01T07:32:10.636Z,9.64
2023-04-01T07:33:10.682Z,9.66
2023-04-01T07:34:10.617Z,9.60
2023-04-01T07:35:10.586Z,9.68
2023-04-01T07:36:10.585Z,9.74
2023-04-01T07:37:10.552Z,9.74
2023-04-01T07:38:10.635Z,9.84
2023-04-01T07:39:10.558Z,9.78
2023-04-01T07:40:10.518Z,9.78
2023-04-01T07:41:10.529Z,9.83
2023-04-01T07:42:10.525Z,9.75
2023-04-01T07:43:10.496Z,9.84
2023-04-01T07:44:10.513Z,9.72
2023-04-01T07:45:10.489Z,9.78
2023-04-01T07:46:10.515Z,9.91
2023-04-01T07:47:10.434Z,10.01
2023-04-01T07:48:10.456Z,10.07
2023-04-01T07:49:10.414Z,10.04
2023-04-01T07:50:10.467Z,10.05
2023-04-01T07:51:10.425Z,10.05
2023-04-01T07:52:10.394Z,10.04
2023-04-01T07:53:10.376Z,10.04
2023-04-01T07:54:10.364Z,10.05
2023-04-01T07:55:10.350Z,9.99
2023-04-01T07:56:11.670Z,10.02
2023-04-01T07:57:10.386Z,9.97
2023-04-01T07:58:10.311Z,10.02
2023-04-01T07:59:10.321Z,10.01
2023-04-01T08:00:10.331Z,9.96
2023-04-01T08:01:10.329Z,9.89
2023-04-01T08:02:10.299Z,9.87
2023-04-01T08:03:10.394Z,9.83
2023-04-01T08:04:10.392Z,9.90
2023-04-01T08:05:10.241Z,9.91
2023-04-01T08:06:10.230Z,9.89
2023-04-01T08:07:10.222Z,9.91
2023-04-01T08:08:10.253Z,9.89
2023-04-01T08:09:10.231Z,9.90
2023-04-01T08:10:10.230Z,9.91
2023-04-01T08:11:10.174Z,9.89
2023-04-01T08:12:10.167Z,9.91
2023-04-01T08:13:10.178Z,9.91
2023-04-01T08:14:10.212Z,9.97
2023-04-01T08:15:10.149Z,10.01
2023-04-01T08:16:10.162Z,10.05
2023-04-01T08:17:10.124Z,10.04
2023-04-01T08:18:10.096Z,10.09
2023-04-01T08:19:10.115Z,10.12
2023-04-01T08:20:10.112Z,10.09
2023-04-01T08:21:10.051Z,10.14
2023-04-01T08:22:10.076Z,10.18
2023-04-01T08:23:10.034Z,10.23
2023-04-01T08:24:10.062Z,10.29
2023-04-01T08:25:10.004Z,10.33
2023-04-01T08:26:09.992Z,10.38
2023-04-01T08:27:10.006Z,10.42
2023-04-01T08:28:09.983Z,10.38
2023-04-01T08:29:09.999Z,10.47
2023-04-01T08:30:10.453Z,10.41
2023-04-01T08:31:09.949Z,10.40
2023-04-01T08:32:09.976Z,10.47
2023-04-01T08:33:09.944Z,10.52
2023-04-01T08:34:10.336Z,10.60
2023-04-01T08:35:09.903Z,10.55
2023-04-01T08:36:09.944Z,10.61
2023-04-01T08:37:09.869Z,10.52
2023-04-01T08:38:09.864Z,10.53
2023-04-01T08:39:09.908Z,10.51
2023-04-01T08:40:09.837Z,10.56
2023-04-01T08:41:09.840Z,10.55
2023-04-01T08:42:09.851Z,10.56
2023-04-01T08:43:09.808Z,10.60
2023-04-01T08:44:09.797Z,10.60
2023-04-01T08:45:10.093Z,10.56
2023-04-01T08:46:09.882Z,10.66
2023-04-01T08:47:09.771Z,10.64
2023-04-01T08:48:09.972Z,10.68
2023-04-01T08:49:09.735Z,10.76
2023-04-01T08:50:09.726Z,10.79
2023-04-01T08:51:09.761Z,10.71
2023-04-01T08:52:09.716Z,10.84
2023-04-01T08:53:09.721Z,10.78
2023-04-01T08:54:09.682Z,10.73
2023-04-01T08:55:09.668Z,10.76
2023-04-01T08:56:09.666Z,10.78
2023-04-01T08:57:09.693Z,10.76
2023-04-01T08:58:09.675Z,10.81
2023-04-01T08:59:09.673Z,10.71
2023-04-01T09:00:09.642Z,10.86
2023-04-01T09:01:09.648Z,10.74
2023-04-01T09:02:09.676Z,10.81
2023-04-01T09:03:09.759Z,10.85
2023-04-01T09:04:09.658Z,10.89
2023-04-01T09:05:09.562Z,11.03
2023-04-01T09:06:09.576Z,11.10
2023-04-01T09:07:10.873Z,11.09
2023-04-01T09:08:09.529Z,11.18
2023-04-01T09:09:09.550Z,11.19
2023-04-01T09:10:09.519Z,11.28
2023-04-01T09:11:09.547Z,11.39
2023-04-01T09:12:09.549Z,11.44
2023-04-01T09:13:09.472Z,11.51
2023-04-01T09:14:09.492Z,11.54
2023-04-01T09:15:09.499Z,11.62
2023-04-01T09:16:09.470Z,11.65
2023-04-01T09:17:09.451Z,11.65
2023-04-01T09:18:09.496Z,11.73
2023-04-01T09:19:10.085Z,11.80
2023-04-01T09:20:09.403Z,11.75
2023-04-01T09:21:09.428Z,11.69
2023-04-01T09:22:09.382Z,11.70
2023-04-01T09:23:09.368Z,11.67
2023-04-01T09:24:09.353Z,11.76
2023-04-01T09:25:09.360Z,11.69
2023-04-01T09:26:09.375Z,11.72
2023-04-01T09:27:09.355Z,11.70
2023-04-01T09:28:09.308Z,11.73
2023-04-01T09:29:09.295Z,11.64
2023-04-01T09:30:09.294Z,11.62
2023-04-01T09:31:09.344Z,11.67
2023-04-01T09:32:09.288Z,11.58
2023-04-01T09:33:09.298Z,11.55
2023-04-01T09:34:09.246Z,11.55
2023-04-01T09:35:09.232Z,11.61
2023-04-01T09:36:09.278Z,11.55
2023-04-01T09:37:09.239Z,11.64
2023-04-01T09:38:09.217Z,11.67
2023-04-01T09:39:09.243Z,11.62
2023-04-01T09:40:09.199Z,11.64
2023-04-01T09:41:09.164Z,11.69
2023-04-01T09:42:09.158Z,11.72
2023-04-01T09:43:09.182Z,11.67
2023-04-01T09:44:09.164Z,11.65
2023-04-01T09:45:09.120Z,11.55
2023-04-01T09:46:09.212Z,11.43
2023-04-01T09:47:09.103Z,11.37
2023-04-01T09:48:09.139Z,11.51
2023-04-01T09:49:09.108Z,11.47
2023-04-01T09:50:09.067Z,11.49
2023-04-01T09:51:09.103Z,11.49
2023-04-01T09:52:09.049Z,11.52
2023-04-01T09:53:09.043Z,11.55
2023-04-01T09:54:09.033Z,11.58
2023-04-01T09:55:09.029Z,11.65
2023-04-01T09:56:09.015Z,11.75
2023-04-01T09:57:09.038Z,11.65
2023-04-01T09:58:08.981Z,11.65
2023-04-01T09:59:08.967Z,11.86
2023-04-01T10:00:08.974Z,11.95
2023-04-01T10:01:08.968Z,11.94
2023-04-01T10:02:08.995Z,11.95
2023-04-01T10:03:08.977Z,11.95
2023-04-01T10:04:08.912Z,11.90
2023-04-01T10:05:09.009Z,11.98
2023-04-01T10:06:09.071Z,11.91
2023-04-01T10:07:08.870Z,11.94
2023-04-01T10:08:08.882Z,11.94
2023-04-01T10:09:08.856Z,11.91
2023-04-01T10:10:08.867Z,12.07
2023-04-01T10:11:08.861Z,12.01
2023-04-01T10:12:08.843Z,11.96
2023-04-01T10:13:08.816Z,12.04
2023-04-01T10:14:08.794Z,11.96
2023-04-01T10:15:08.812Z,11.94
2023-04-01T10:16:08.848Z,11.94
2023-04-01T10:17:08.806Z,11.91
2023-04-01T10:18:08.865Z,11.91
2023-04-01T10:19:08.737Z,11.95
2023-04-01T10:20:08.736Z,11.95
2023-04-01T10:21:08.740Z,11.85
2023-04-01T10:22:08.704Z,11.90
2023-04-01T10:23:08.718Z,11.86
2023-04-01T10:24:08.713Z,11.90
2023-04-01T10:25:08.674Z,11.95
2023-04-01T10:26:08.739Z,11.99
2023-04-01T10:27:08.659Z,11.96
2023-04-01T10:28:08.671Z,12.02
2023-04-01T10:29:08.651Z,12.02
2023-04-01T10:30:08.650Z,11.96
2023-04-01T10:31:08.614Z,11.96
2023-04-01T10:32:08.682Z,11.79
2023-04-01T10:33:08.605Z,11.73
2023-04-01T10:34:08.616Z,11.72
2023-04-01T10:35:08.573Z,11.67
2023-04-01T10:36:08.621Z,11.58
2023-04-01T10:37:08.554Z,11.55
2023-04-01T10:38:08.547Z,11.47
2023-04-01T10:39:08.513Z,11.51
2023-04-01T10:40:08.506Z,11.46
2023-04-01T10:41:08.490Z,11.52
2023-04-01T10:42:08.478Z,11.47
2023-04-01T10:43:08.510Z,11.43
2023-04-01T10:44:08.481Z,11.39
2023-04-01T10:45:08.452Z,11.36
2023-04-01T10:46:08.503Z,11.29
2023-04-01T10:47:08.422Z,11.18
2023-04-01T10:48:08.479Z,11.27
2023-04-01T10:49:08.442Z,11.15
2023-04-01T10:50:08.392Z,11.24
2023-04-01T10:51:08.411Z,11.24
2023-04-01T10:52:08.385Z,11.22
2023-04-01T10:53:08.379Z,11.19
2023-04-01T10:54:08.343Z,11.24
2023-04-01T10:55:16.915Z,11.19
2023-04-01T10:56:08.353Z,11.22
2023-04-01T10:57:08.338Z,11.27
2023-04-01T10:58:08.298Z,11.18
2023-04-01T10:59:08.334Z,11.21
2023-04-01T11:00:08.279Z,11.32
2023-04-01T11:01:08.327Z,11.22
2023-04-01T11:02:11.770Z,11.27
2023-04-01T11:03:08.426Z,11.37
2023-04-01T11:04:08.233Z,11.33
2023-04-01T11:05:08.250Z,11.27
2023-04-01T11:06:08.293Z,11.29
2023-04-01T11:07:08.212Z,11.17
2023-04-01T11:08:08.199Z,11.33
2023-04-01T11:09:08.193Z,11.18
2023-04-01T11:10:08.205Z,11.00
2023-04-01T11:11:08.164Z,10.92
2023-04-01T11:12:08.207Z,10.81
2023-04-01T11:13:08.135Z,10.74
2023-04-01T11:14:08.130Z,10.56
2023-04-01T11:15:08.142Z,10.36
2023-04-01T11:16:08.154Z,10.18
2023-04-01T11:17:08.113Z,10.18
2023-04-01T11:18:08.130Z,10.11
2023-04-01T11:19:08.073Z,10.07
2023-04-01T11:20:08.073Z,10.05
2023-04-01T11:21:08.042Z,10.01
2023-04-01T11:22:08.034Z,9.97
2023-04-01T11:23:08.066Z,9.94
2023-04-01T11:24:08.030Z,10.04
2023-04-01T11:25:08.034Z,10.07
2023-04-01T11:26:08.008Z,10.09
2023-04-01T11:27:08.135Z,10.07
2023-04-01T11:28:07.968Z,10.08
2023-04-01T11:29:07.986Z,10.14
2023-04-01T11:30:07.948Z,10.11
2023-04-01T11:31:08.006Z,10.11
2023-04-01T11:32:07.945Z,10.08
2023-04-01T11:33:07.991Z,9.99
2023-04-01T11:34:07.904Z,9.99
2023-04-01T11:35:07.936Z,9.96
2023-04-01T11:36:07.886Z,9.94
2023-04-01T11:37:07.878Z,9.94
2023-04-01T11:38:07.926Z,9.89
2023-04-01T11:39:07.843Z,9.78
2023-04-01T11:40:07.841Z,9.72
2023-04-01T11:41:07.869Z,9.76
2023-04-01T11:42:07.831Z,9.72
2023-04-01T11:43:07.818Z,9.69
2023-04-01T11:44:07.826Z,9.58
2023-04-01T11:45:07.777Z,9.43
2023-04-01T11:46:07.823Z,9.38
2023-04-01T11:47:07.793Z,9.28
2023-04-01T11:48:07.902Z,9.05
2023-04-01T11:49:07.743Z,9.11
2023-04-01T11:50:07.729Z,8.98
2023-04-01T11:51:07.717Z,8.98
2023-04-01T11:52:07.701Z,8.73
2023-04-01T11:53:07.757Z,8.73
2023-04-01T11:54:07.701Z,8.73
2023-04-01T11:55:07.688Z,8.63
2023-04-01T11:56:07.675Z,8.70
2023-04-01T11:57:07.677Z,8.74
2023-04-01T11:58:07.659Z,8.65
2023-04-01T11:59:07.693Z,8.71
2023-04-01T12:00:07.638Z,8.76
2023-04-01T12:01:07.598Z,8.68
2023-04-01T12:02:07.636Z,8.66
2023-04-01T12:03:07.739Z,8.73
2023-04-01T12:04:07.836Z,8.76
2023-04-01T12:05:07.580Z,8.74
2023-04-01T12:06:07.557Z,8.77
2023-04-01T12:07:07.534Z,8.79
2023-04-01T12:08:07.555Z,8.79
2023-04-01T12:09:07.523Z,8.77
2023-04-01T12:10:07.537Z,8.77
2023-04-01T12:11:07.546Z,8.77
2023-04-01T12:12:07.504Z,8.63
2023-04-01T12:13:07.484Z,8.71
2023-04-01T12:14:07.454Z,8.71
2023-04-01T12:15:07.447Z,8.70
2023-04-01T12:16:07.477Z,8.65
2023-04-01T12:17:07.474Z,8.74
2023-04-01T12:18:07.557Z,8.71
2023-04-01T12:19:07.400Z,8.68
2023-04-01T12:20:07.398Z,8.62
2023-04-01T12:21:07.374Z,8.63
2023-04-01T12:22:07.389Z,8.68
2023-04-01T12:23:07.410Z,8.77
2023-04-01T12:24:07.346Z,8.71
2023-04-01T12:25:07.330Z,8.79
2023-04-01T12:26:07.345Z,8.68
2023-04-01T12:27:07.317Z,8.79
2023-04-01T12:28:07.317Z,8.65
2023-04-01T12:29:07.335Z,8.76
2023-04-01T12:30:07.295Z,8.77
2023-04-01T12:31:07.290Z,8.74
2023-04-01T12:32:07.323Z,8.76
2023-04-01T12:33:07.271Z,8.76
2023-04-01T12:34:07.254Z,8.76
2023-04-01T12:35:07.280Z,8.84
2023-04-01T12:36:07.264Z,8.81
2023-04-01T12:37:07.231Z,8.83
2023-04-01T12:38:07.192Z,8.76
2023-04-01T12:39:07.191Z,8.76
2023-04-01T12:40:07.170Z,8.77
2023-04-01T12:41:07.220Z,8.79
2023-04-01T12:42:07.178Z,8.74
2023-04-01T12:43:07.132Z,8.71
2023-04-01T12:44:07.126Z,8.63
2023-04-01T12:45:07.200Z,8.68
2023-04-01T12:46:07.182Z,8.76
2023-04-01T12:47:07.165Z,8.71
2023-04-01T12:48:07.150Z,8.71
2023-04-01T12:49:07.081Z,8.79
2023-04-01T12:50:07.065Z,8.79
2023-04-01T12:51:07.063Z,8.81
2023-04-01T12:52:07.043Z,8.76
2023-04-01T12:53:07.037Z,8.77
2023-04-01T12:54:07.018Z,8.74
2023-04-01T12:55:07.006Z,8.70
2023-04-01T12:56:07.005Z,8.70
2023-04-01T12:57:07.031Z,8.76
2023-04-01T12:58:06.987Z,8.76
2023-04-01T12:59:06.969Z,8.79
2023-04-01T13:00:06.955Z,8.80
2023-04-01T13:01:07.011Z,8.80
2023-04-01T13:02:06.933Z,8.79
2023-04-01T13:03:06.988Z,8.73
2023-04-01T13:04:06.992Z,8.79
2023-04-01T13:05:06.918Z,8.74
2023-04-01T13:06:06.873Z,8.76
2023-04-01T13:07:06.878Z,8.70
2023-04-01T13:08:06.858Z,8.66
2023-04-01T13:09:06.841Z,8.80
2023-04-01T13:10:06.864Z,8.74
2023-04-01T13:11:06.909Z,8.79